Bookmark and Share
Track history (hours):
 

Oski

More information available from US FCC via Universal Licensing System and Coast Guard Vessel Documentation Center.

Last reported at 2014-Apr-24 00:32 UTC. Time now 2014-Apr-24 06:27 UTC.
Position N 37°49' W 122°25'.

Length 86 m; draft 2 m.

Type: Passenger vessel. MMSI: 366985320.

NotesDate/timePositionNaut miles runAvg speedWind from/ knotsBaromVisibWave heightAir tempDewpointWater temp
2014-Apr-24 00:32N 37°49' W 122°25'0 0.1
2014-Apr-23 23:33N 37°49' W 122°25'2 2.1
2014-Apr-23 22:33N 37°49' W 122°27'2 1.9
2014-Apr-23 21:27N 37°49' W 122°25'2 2.6
2014-Apr-23 20:33N 37°49' W 122°28'2 2.3
2014-Apr-23 19:34N 37°49' W 122°25'1 0.5
2014-Apr-23 18:34N 37°49' W 122°25'3 2.9
2014-Apr-23 17:33N 37°49' W 122°28'3 0.2
2014-Apr-23 00:29N 37°49' W 122°25'0 0.0
2014-Apr-22 23:33N 37°49' W 122°25'1 0.8
2014-Apr-22 22:33N 37°49' W 122°26'1 0.8
2014-Apr-22 21:33N 37°49' W 122°25'2 2.4
2014-Apr-22 20:33N 37°49' W 122°28'3 3.0
2014-Apr-22 19:33N 37°49' W 122°24'1 0.7
2014-Apr-22 18:33N 37°49' W 122°25'3 3.0
2014-Apr-22 17:33N 37°49' W 122°28'3 0.2
2014-Apr-22 00:28N 37°49' W 122°25'0 0.0
2014-Apr-21 23:33N 37°49' W 122°25'2 1.9
2014-Apr-21 22:33N 37°49' W 122°27'2 1.9
2014-Apr-21 21:33N 37°49' W 122°25'2 1.6
2014-Apr-21 20:33N 37°49' W 122°27'2 2.3
2014-Apr-21 19:33N 37°49' W 122°24'1 0.8
2014-Apr-21 18:33N 37°49' W 122°25'3 2.8
2014-Apr-21 17:33N 37°49' W 122°28'3 0.2
2014-Apr-21 01:34N 37°49' W 122°24'0 0.3
2014-Apr-21 00:33N 37°49' W 122°25'0 0.0
2014-Apr-20 23:33N 37°49' W 122°25'2 2.5
2014-Apr-20 22:33N 37°49' W 122°28'2 2.5
2014-Apr-20 21:33N 37°49' W 122°25'2 1.6
2014-Apr-20 20:32N 37°49' W 122°27'2 2.3
2014-Apr-20 19:33N 37°49' W 122°24'1 0.7
2014-Apr-20 18:33N 37°49' W 122°25'2 2.4
2014-Apr-20 17:33N 37°49' W 122°28'3 0.2
2014-Apr-20 01:33N 37°49' W 122°24'0 0.3
2014-Apr-20 00:33N 37°49' W 122°25'0 0.1
2014-Apr-19 23:33N 37°49' W 122°25'2 2.4
2014-Apr-19 22:33N 37°49' W 122°28'2 2.4
2014-Apr-19 21:33N 37°49' W 122°25'2 1.9
2014-Apr-19 20:33N 37°49' W 122°27'3 2.6
2014-Apr-19 19:33N 37°49' W 122°24'1 0.9
2014-Apr-19 18:34N 37°49' W 122°25'2 2.4
2014-Apr-19 17:33N 37°49' W 122°28'2 0.1
2014-Apr-19 01:34N 37°50' W 122°25'1 1.0
2014-Apr-19 00:33N 37°49' W 122°25'0 0.0
2014-Apr-18 23:33N 37°49' W 122°25'2 1.9
2014-Apr-18 22:33N 37°49' W 122°27'2 1.9
2014-Apr-18 21:33N 37°49' W 122°25'2 1.8
2014-Apr-18 20:33N 37°49' W 122°27'2 1.9
2014-Apr-18 19:33N 37°49' W 122°25'1 0.9
2014-Apr-18 18:33N 37°49' W 122°25'2 1.6
2014-Apr-18 17:33N 37°49' W 122°27'2 0.1
2014-Apr-18 01:33N 37°49' W 122°25'1 0.7
2014-Apr-18 00:33N 37°49' W 122°25'0 0.0
2014-Apr-17 23:33N 37°49' W 122°25'2 2.1
2014-Apr-17 22:33N 37°49' W 122°27'2 2.1
2014-Apr-17 21:33N 37°49' W 122°25'2 2.0
2014-Apr-17 20:33N 37°49' W 122°27'2 2.3
2014-Apr-17 19:34N 37°49' W 122°24'1 0.6
2014-Apr-17 18:33N 37°49' W 122°25'2 2.2
2014-Apr-17 17:33N 37°49' W 122°28'2 0.1
2014-Apr-17 01:33N 37°49' W 122°25'1 0.8
2014-Apr-17 00:33N 37°49' W 122°25'0 0.0
2014-Apr-16 23:33N 37°49' W 122°25'2 2.1
2014-Apr-16 22:33N 37°49' W 122°27'2 1.9
2014-Apr-16 21:28N 37°49' W 122°25'2 1.9
2014-Apr-16 20:33N 37°49' W 122°27'1 1.2
2014-Apr-16 19:33N 37°50' W 122°25'1 1.4
2014-Apr-16 18:33N 37°49' W 122°25'2 1.8
2014-Apr-16 17:33N 37°49' W 122°27'2 0.1
2014-Apr-16 01:33N 37°49' W 122°24'0 0.3
2014-Apr-16 00:34N 37°49' W 122°25'0 0.0
2014-Apr-15 23:34N 37°49' W 122°25'2 1.9
2014-Apr-15 22:33N 37°49' W 122°27'2 1.9
2014-Apr-15 21:34N 37°49' W 122°25'2 2.0
2014-Apr-15 20:34N 37°49' W 122°27'3 2.9
2014-Apr-15 19:34N 37°49' W 122°24'1 0.9
2014-Apr-15 18:33N 37°49' W 122°25'2 1.6
2014-Apr-15 17:34N 37°49' W 122°27'2 1.7
2014-Apr-15 16:33N 37°49' W 122°25'0 0.0
2014-Apr-15 00:34N 37°49' W 122°25'0 0.2
2014-Apr-14 23:34N 37°49' W 122°25'0 0.0
2014-Apr-14 22:34N 37°49' W 122°25'3 3.0
2014-Apr-14 21:34N 37°49' W 122°28'3 3.0
2014-Apr-14 20:34N 37°49' W 122°25'2 2.3
2014-Apr-14 19:34N 37°49' W 122°28'3 3.4
2014-Apr-14 18:34N 37°48' W 122°23'1 1.1
2014-Apr-14 17:33N 37°49' W 122°25'2 2.0
2014-Apr-14 16:33N 37°49' W 122°27'  

Dump ship's entire track history

sailing weather and tide predictions

Oski — WYD3004 — position and weather